sensor_id;sensor_type;location;lat;lon;timestamp;P1;durP1;ratioP1;P2;durP2;ratioP2
9418;SDS011;4748;50.802;7.132;2022-12-11T00:01:52;10.87;;;5.00;;
9418;SDS011;4748;50.802;7.132;2022-12-11T00:04:17;14.63;;;7.27;;
9418;SDS011;4748;50.802;7.132;2022-12-11T00:06:43;9.40;;;4.87;;
9418;SDS011;4748;50.802;7.132;2022-12-11T00:09:08;12.30;;;5.23;;
9418;SDS011;4748;50.802;7.132;2022-12-11T00:11:33;9.40;;;5.90;;
9418;SDS011;4748;50.802;7.132;2022-12-11T00:13:59;15.10;;;5.97;;
9418;SDS011;4748;50.802;7.132;2022-12-11T00:16:24;12.27;;;6.13;;
9418;SDS011;4748;50.802;7.132;2022-12-11T00:18:50;19.10;;;7.60;;
9418;SDS011;4748;50.802;7.132;2022-12-11T00:21:15;21.33;;;8.97;;
9418;SDS011;4748;50.802;7.132;2022-12-11T00:23:40;12.87;;;5.90;;
9418;SDS011;4748;50.802;7.132;2022-12-11T00:26:07;12.20;;;6.30;;
9418;SDS011;4748;50.802;7.132;2022-12-11T00:28:34;9.87;;;6.47;;
9418;SDS011;4748;50.802;7.132;2022-12-11T00:31:04;20.90;;;7.27;;
9418;SDS011;4748;50.802;7.132;2022-12-11T00:33:30;12.20;;;5.80;;
9418;SDS011;4748;50.802;7.132;2022-12-11T00:35:55;11.57;;;6.90;;
9418;SDS011;4748;50.802;7.132;2022-12-11T00:38:20;10.97;;;5.03;;
9418;SDS011;4748;50.802;7.132;2022-12-11T00:40:46;12.43;;;7.37;;
9418;SDS011;4748;50.802;7.132;2022-12-11T00:43:13;15.90;;;6.07;;
9418;SDS011;4748;50.802;7.132;2022-12-11T00:45:39;11.97;;;6.63;;
9418;SDS011;4748;50.802;7.132;2022-12-11T00:48:08;19.83;;;7.27;;
9418;SDS011;4748;50.802;7.132;2022-12-11T00:50:34;9.30;;;5.97;;
9418;SDS011;4748;50.802;7.132;2022-12-11T00:53:00;15.27;;;7.77;;
9418;SDS011;4748;50.802;7.132;2022-12-11T00:55:26;19.97;;;7.57;;
9418;SDS011;4748;50.802;7.132;2022-12-11T00:57:53;11.90;;;6.67;;
9418;SDS011;4748;50.802;7.132;2022-12-11T01:00:19;20.37;;;7.47;;
9418;SDS011;4748;50.802;7.132;2022-12-11T01:02:46;18.63;;;7.90;;
9418;SDS011;4748;50.802;7.132;2022-12-11T01:05:12;15.47;;;6.90;;
9418;SDS011;4748;50.802;7.132;2022-12-11T01:07:37;14.20;;;7.23;;
9418;SDS011;4748;50.802;7.132;2022-12-11T01:10:02;14.50;;;7.73;;
9418;SDS011;4748;50.802;7.132;2022-12-11T01:12:47;15.43;;;6.80;;
9418;SDS011;4748;50.802;7.132;2022-12-11T01:15:25;14.47;;;5.93;;
9418;SDS011;4748;50.802;7.132;2022-12-11T01:17:52;15.77;;;6.40;;
9418;SDS011;4748;50.802;7.132;2022-12-11T01:20:18;10.63;;;5.77;;
9418;SDS011;4748;50.802;7.132;2022-12-11T01:22:44;19.33;;;8.53;;
9418;SDS011;4748;50.802;7.132;2022-12-11T01:25:10;10.90;;;5.87;;
9418;SDS011;4748;50.802;7.132;2022-12-11T01:27:36;11.17;;;4.87;;
9418;SDS011;4748;50.802;7.132;2022-12-11T01:30:02;14.17;;;7.07;;
9418;SDS011;4748;50.802;7.132;2022-12-11T01:32:29;16.13;;;7.20;;
9418;SDS011;4748;50.802;7.132;2022-12-11T01:34:55;16.63;;;7.70;;
9418;SDS011;4748;50.802;7.132;2022-12-11T01:37:20;13.87;;;6.97;;
9418;SDS011;4748;50.802;7.132;2022-12-11T01:39:45;14.27;;;6.50;;
9418;SDS011;4748;50.802;7.132;2022-12-11T01:42:14;16.80;;;6.37;;
9418;SDS011;4748;50.802;7.132;2022-12-11T01:47:07;10.47;;;4.60;;
9418;SDS011;4748;50.802;7.132;2022-12-11T01:49:32;11.03;;;4.47;;
9418;SDS011;4748;50.802;7.132;2022-12-11T01:51:58;8.20;;;5.10;;
9418;SDS011;4748;50.802;7.132;2022-12-11T01:54:30;15.10;;;4.30;;
9418;SDS011;4748;50.802;7.132;2022-12-11T01:56:57;11.83;;;5.60;;
9418;SDS011;4748;50.802;7.132;2022-12-11T01:59:27;17.17;;;6.57;;
9418;SDS011;4748;50.802;7.132;2022-12-11T02:04:43;12.67;;;6.77;;
9418;SDS011;4748;50.802;7.132;2022-12-11T02:07:09;26.07;;;6.20;;
9418;SDS011;4748;50.802;7.132;2022-12-11T02:09:35;17.33;;;4.73;;
9418;SDS011;4748;50.802;7.132;2022-12-11T02:15:01;17.23;;;5.57;;
9418;SDS011;4748;50.802;7.132;2022-12-11T02:25:21;20.17;;;7.70;;
9418;SDS011;4748;50.802;7.132;2022-12-11T02:28:28;15.90;;;5.90;;
9418;SDS011;4748;50.802;7.132;2022-12-11T02:31:02;15.07;;;6.37;;
9418;SDS011;4748;50.802;7.132;2022-12-11T02:33:44;19.80;;;7.50;;
9418;SDS011;4748;50.802;7.132;2022-12-11T02:36:19;12.93;;;4.83;;
9418;SDS011;4748;50.802;7.132;2022-12-11T02:38:47;17.00;;;5.63;;
9418;SDS011;4748;50.802;7.132;2022-12-11T02:41:16;14.43;;;5.20;;
9418;SDS011;4748;50.802;7.132;2022-12-11T02:43:43;13.20;;;7.00;;
9418;SDS011;4748;50.802;7.132;2022-12-11T02:46:10;19.70;;;5.20;;
9418;SDS011;4748;50.802;7.132;2022-12-11T02:48:36;19.20;;;6.40;;
9418;SDS011;4748;50.802;7.132;2022-12-11T02:51:04;10.30;;;5.30;;
9418;SDS011;4748;50.802;7.132;2022-12-11T02:53:31;10.47;;;5.70;;
9418;SDS011;4748;50.802;7.132;2022-12-11T02:56:07;12.13;;;6.30;;
9418;SDS011;4748;50.802;7.132;2022-12-11T02:58:37;13.47;;;6.13;;
9418;SDS011;4748;50.802;7.132;2022-12-11T03:01:10;8.47;;;5.40;;
9418;SDS011;4748;50.802;7.132;2022-12-11T03:03:35;12.00;;;5.43;;
9418;SDS011;4748;50.802;7.132;2022-12-11T03:06:00;9.00;;;5.93;;
9418;SDS011;4748;50.802;7.132;2022-12-11T03:08:26;15.50;;;6.07;;
9418;SDS011;4748;50.802;7.132;2022-12-11T03:10:51;22.63;;;5.53;;
9418;SDS011;4748;50.802;7.132;2022-12-11T03:13:18;15.30;;;5.47;;
9418;SDS011;4748;50.802;7.132;2022-12-11T03:21:08;12.43;;;5.37;;
9418;SDS011;4748;50.802;7.132;2022-12-11T03:24:02;24.00;;;7.67;;
9418;SDS011;4748;50.802;7.132;2022-12-11T03:26:32;11.63;;;6.13;;
9418;SDS011;4748;50.802;7.132;2022-12-11T03:29:03;19.73;;;6.47;;
9418;SDS011;4748;50.802;7.132;2022-12-11T03:31:41;15.23;;;6.13;;
9418;SDS011;4748;50.802;7.132;2022-12-11T03:34:11;11.50;;;6.47;;
9418;SDS011;4748;50.802;7.132;2022-12-11T03:36:41;10.40;;;6.40;;
9418;SDS011;4748;50.802;7.132;2022-12-11T03:39:10;12.67;;;5.47;;
9418;SDS011;4748;50.802;7.132;2022-12-11T03:41:40;18.60;;;6.77;;
9418;SDS011;4748;50.802;7.132;2022-12-11T03:44:10;12.07;;;6.43;;
9418;SDS011;4748;50.802;7.132;2022-12-11T03:46:37;14.43;;;5.57;;
9418;SDS011;4748;50.802;7.132;2022-12-11T03:49:25;14.03;;;5.07;;
9418;SDS011;4748;50.802;7.132;2022-12-11T03:51:52;15.67;;;5.40;;
9418;SDS011;4748;50.802;7.132;2022-12-11T03:54:21;16.67;;;6.43;;
9418;SDS011;4748;50.802;7.132;2022-12-11T03:56:47;14.40;;;5.83;;
9418;SDS011;4748;50.802;7.132;2022-12-11T03:59:17;14.73;;;5.77;;
9418;SDS011;4748;50.802;7.132;2022-12-11T04:01:42;10.53;;;4.83;;
9418;SDS011;4748;50.802;7.132;2022-12-11T04:04:07;21.87;;;4.77;;
9418;SDS011;4748;50.802;7.132;2022-12-11T04:06:33;9.10;;;5.40;;
9418;SDS011;4748;50.802;7.132;2022-12-11T04:08:58;6.23;;;4.37;;
9418;SDS011;4748;50.802;7.132;2022-12-11T04:11:23;13.50;;;5.40;;
9418;SDS011;4748;50.802;7.132;2022-12-11T04:14:02;14.63;;;4.87;;
9418;SDS011;4748;50.802;7.132;2022-12-11T04:16:47;10.17;;;5.33;;
9418;SDS011;4748;50.802;7.132;2022-12-11T04:19:12;15.63;;;5.40;;
9418;SDS011;4748;50.802;7.132;2022-12-11T04:21:57;7.43;;;3.90;;
9418;SDS011;4748;50.802;7.132;2022-12-11T04:24:41;10.10;;;3.57;;
9418;SDS011;4748;50.802;7.132;2022-12-11T04:27:06;18.17;;;5.43;;
9418;SDS011;4748;50.802;7.132;2022-12-11T04:29:31;11.13;;;4.57;;
9418;SDS011;4748;50.802;7.132;2022-12-11T04:31:57;9.27;;;4.33;;
9418;SDS011;4748;50.802;7.132;2022-12-11T04:34:22;12.70;;;3.93;;
9418;SDS011;4748;50.802;7.132;2022-12-11T04:36:48;21.63;;;5.97;;
9418;SDS011;4748;50.802;7.132;2022-12-11T04:39:13;17.27;;;5.50;;
9418;SDS011;4748;50.802;7.132;2022-12-11T04:41:39;8.27;;;4.53;;
9418;SDS011;4748;50.802;7.132;2022-12-11T04:44:05;14.87;;;5.97;;
9418;SDS011;4748;50.802;7.132;2022-12-11T04:46:31;11.73;;;5.43;;
9418;SDS011;4748;50.802;7.132;2022-12-11T04:48:57;4.30;;;3.80;;
9418;SDS011;4748;50.802;7.132;2022-12-11T04:51:24;7.57;;;5.40;;
9418;SDS011;4748;50.802;7.132;2022-12-11T04:53:50;16.97;;;6.10;;
9418;SDS011;4748;50.802;7.132;2022-12-11T04:56:15;14.37;;;6.10;;
9418;SDS011;4748;50.802;7.132;2022-12-11T04:58:41;11.77;;;5.90;;
9418;SDS011;4748;50.802;7.132;2022-12-11T05:01:08;9.63;;;5.23;;
9418;SDS011;4748;50.802;7.132;2022-12-11T05:03:39;11.17;;;5.37;;
9418;SDS011;4748;50.802;7.132;2022-12-11T05:06:05;9.93;;;4.57;;
9418;SDS011;4748;50.802;7.132;2022-12-11T05:08:32;10.60;;;5.27;;
9418;SDS011;4748;50.802;7.132;2022-12-11T05:11:00;9.87;;;5.30;;
9418;SDS011;4748;50.802;7.132;2022-12-11T05:13:27;12.33;;;6.07;;
9418;SDS011;4748;50.802;7.132;2022-12-11T05:15:53;8.83;;;4.97;;
9418;SDS011;4748;50.802;7.132;2022-12-11T05:18:18;12.10;;;5.13;;
9418;SDS011;4748;50.802;7.132;2022-12-11T05:20:44;9.10;;;4.30;;
9418;SDS011;4748;50.802;7.132;2022-12-11T05:23:09;14.37;;;5.73;;
9418;SDS011;4748;50.802;7.132;2022-12-11T05:25:35;11.17;;;5.23;;
9418;SDS011;4748;50.802;7.132;2022-12-11T05:28:00;12.77;;;4.80;;
9418;SDS011;4748;50.802;7.132;2022-12-11T05:30:26;11.20;;;4.93;;
9418;SDS011;4748;50.802;7.132;2022-12-11T05:32:51;11.50;;;6.03;;
9418;SDS011;4748;50.802;7.132;2022-12-11T05:35:16;12.27;;;3.17;;
9418;SDS011;4748;50.802;7.132;2022-12-11T05:37:42;10.87;;;5.37;;
9418;SDS011;4748;50.802;7.132;2022-12-11T05:40:07;10.23;;;5.60;;
9418;SDS011;4748;50.802;7.132;2022-12-11T05:42:33;8.23;;;3.63;;
9418;SDS011;4748;50.802;7.132;2022-12-11T05:44:59;11.30;;;5.00;;
9418;SDS011;4748;50.802;7.132;2022-12-11T05:47:24;12.17;;;5.33;;
9418;SDS011;4748;50.802;7.132;2022-12-11T05:49:50;6.87;;;3.40;;
9418;SDS011;4748;50.802;7.132;2022-12-11T05:52:15;14.33;;;6.30;;
9418;SDS011;4748;50.802;7.132;2022-12-11T05:54:41;16.97;;;5.97;;
9418;SDS011;4748;50.802;7.132;2022-12-11T05:57:07;8.43;;;4.83;;
9418;SDS011;4748;50.802;7.132;2022-12-11T05:59:32;9.40;;;4.33;;
9418;SDS011;4748;50.802;7.132;2022-12-11T06:01:58;14.50;;;5.93;;
9418;SDS011;4748;50.802;7.132;2022-12-11T06:04:23;13.70;;;5.03;;
9418;SDS011;4748;50.802;7.132;2022-12-11T06:06:48;9.77;;;5.23;;
9418;SDS011;4748;50.802;7.132;2022-12-11T06:09:14;9.37;;;3.83;;
9418;SDS011;4748;50.802;7.132;2022-12-11T06:11:40;13.03;;;6.83;;
9418;SDS011;4748;50.802;7.132;2022-12-11T06:14:06;11.63;;;3.37;;
9418;SDS011;4748;50.802;7.132;2022-12-11T06:16:31;18.90;;;5.50;;
9418;SDS011;4748;50.802;7.132;2022-12-11T06:18:57;8.23;;;4.00;;
9418;SDS011;4748;50.802;7.132;2022-12-11T06:21:23;14.50;;;5.80;;
9418;SDS011;4748;50.802;7.132;2022-12-11T06:23:51;5.43;;;3.13;;
9418;SDS011;4748;50.802;7.132;2022-12-11T06:26:18;18.33;;;4.87;;
9418;SDS011;4748;50.802;7.132;2022-12-11T06:28:43;18.87;;;5.67;;
9418;SDS011;4748;50.802;7.132;2022-12-11T06:31:09;12.87;;;5.53;;
9418;SDS011;4748;50.802;7.132;2022-12-11T06:33:35;10.37;;;4.93;;
9418;SDS011;4748;50.802;7.132;2022-12-11T06:36:01;17.10;;;5.67;;
9418;SDS011;4748;50.802;7.132;2022-12-11T06:38:30;16.47;;;5.77;;
9418;SDS011;4748;50.802;7.132;2022-12-11T06:40:57;14.53;;;6.07;;
9418;SDS011;4748;50.802;7.132;2022-12-11T06:43:23;21.07;;;7.57;;
9418;SDS011;4748;50.802;7.132;2022-12-11T06:45:48;35.80;;;8.97;;
9418;SDS011;4748;50.802;7.132;2022-12-11T06:48:14;19.60;;;6.13;;
9418;SDS011;4748;50.802;7.132;2022-12-11T06:50:40;18.00;;;6.83;;
9418;SDS011;4748;50.802;7.132;2022-12-11T06:53:05;19.87;;;8.07;;
9418;SDS011;4748;50.802;7.132;2022-12-11T06:55:33;12.90;;;7.77;;
9418;SDS011;4748;50.802;7.132;2022-12-11T06:58:00;18.77;;;8.73;;
9418;SDS011;4748;50.802;7.132;2022-12-11T07:00:25;27.23;;;8.23;;
9418;SDS011;4748;50.802;7.132;2022-12-11T07:02:51;15.97;;;6.80;;
9418;SDS011;4748;50.802;7.132;2022-12-11T07:05:16;12.33;;;6.50;;
9418;SDS011;4748;50.802;7.132;2022-12-11T07:07:42;28.07;;;10.30;;
9418;SDS011;4748;50.802;7.132;2022-12-11T07:10:07;20.07;;;7.60;;
9418;SDS011;4748;50.802;7.132;2022-12-11T07:12:33;18.80;;;6.93;;
9418;SDS011;4748;50.802;7.132;2022-12-11T07:14:59;24.23;;;8.80;;
9418;SDS011;4748;50.802;7.132;2022-12-11T07:17:24;17.50;;;8.43;;
9418;SDS011;4748;50.802;7.132;2022-12-11T07:19:49;34.13;;;9.63;;
9418;SDS011;4748;50.802;7.132;2022-12-11T07:22:15;23.97;;;8.77;;
9418;SDS011;4748;50.802;7.132;2022-12-11T07:24:40;21.83;;;7.83;;
9418;SDS011;4748;50.802;7.132;2022-12-11T07:27:06;46.67;;;8.20;;
9418;SDS011;4748;50.802;7.132;2022-12-11T07:29:31;18.47;;;6.60;;
9418;SDS011;4748;50.802;7.132;2022-12-11T07:31:56;23.67;;;8.13;;
9418;SDS011;4748;50.802;7.132;2022-12-11T07:34:22;26.40;;;8.80;;
9418;SDS011;4748;50.802;7.132;2022-12-11T07:36:47;20.53;;;7.07;;
9418;SDS011;4748;50.802;7.132;2022-12-11T07:39:12;20.37;;;7.33;;
9418;SDS011;4748;50.802;7.132;2022-12-11T07:41:38;11.57;;;6.50;;
9418;SDS011;4748;50.802;7.132;2022-12-11T07:44:04;15.80;;;8.00;;
9418;SDS011;4748;50.802;7.132;2022-12-11T07:46:30;23.53;;;8.87;;
9418;SDS011;4748;50.802;7.132;2022-12-11T07:48:57;18.47;;;8.77;;
9418;SDS011;4748;50.802;7.132;2022-12-11T07:51:28;18.97;;;6.73;;
9418;SDS011;4748;50.802;7.132;2022-12-11T07:53:56;13.73;;;5.80;;
9418;SDS011;4748;50.802;7.132;2022-12-11T07:56:23;16.30;;;8.60;;
9418;SDS011;4748;50.802;7.132;2022-12-11T07:58:49;19.03;;;7.10;;
9418;SDS011;4748;50.802;7.132;2022-12-11T08:01:15;12.53;;;8.60;;
9418;SDS011;4748;50.802;7.132;2022-12-11T08:03:41;16.43;;;8.47;;
9418;SDS011;4748;50.802;7.132;2022-12-11T08:06:07;21.20;;;7.53;;
9418;SDS011;4748;50.802;7.132;2022-12-11T08:08:33;17.37;;;7.47;;
9418;SDS011;4748;50.802;7.132;2022-12-11T08:11:02;34.47;;;8.13;;
9418;SDS011;4748;50.802;7.132;2022-12-11T08:13:28;26.83;;;9.40;;
9418;SDS011;4748;50.802;7.132;2022-12-11T08:15:54;18.00;;;6.37;;
9418;SDS011;4748;50.802;7.132;2022-12-11T08:18:19;15.80;;;7.50;;
9418;SDS011;4748;50.802;7.132;2022-12-11T08:20:45;26.13;;;7.53;;
9418;SDS011;4748;50.802;7.132;2022-12-11T08:23:10;23.03;;;8.53;;
9418;SDS011;4748;50.802;7.132;2022-12-11T08:25:35;27.33;;;7.77;;
9418;SDS011;4748;50.802;7.132;2022-12-11T08:28:01;11.10;;;6.23;;
9418;SDS011;4748;50.802;7.132;2022-12-11T08:30:26;15.10;;;6.80;;
9418;SDS011;4748;50.802;7.132;2022-12-11T08:32:52;18.23;;;7.20;;
9418;SDS011;4748;50.802;7.132;2022-12-11T08:35:17;16.90;;;8.03;;
9418;SDS011;4748;50.802;7.132;2022-12-11T08:37:42;16.77;;;7.93;;
9418;SDS011;4748;50.802;7.132;2022-12-11T08:40:08;15.07;;;7.80;;
9418;SDS011;4748;50.802;7.132;2022-12-11T08:42:34;21.13;;;7.53;;
9418;SDS011;4748;50.802;7.132;2022-12-11T08:45:00;11.77;;;6.33;;
9418;SDS011;4748;50.802;7.132;2022-12-11T08:47:25;19.40;;;7.50;;
9418;SDS011;4748;50.802;7.132;2022-12-11T08:49:51;24.83;;;8.77;;
9418;SDS011;4748;50.802;7.132;2022-12-11T08:52:16;19.00;;;8.47;;
9418;SDS011;4748;50.802;7.132;2022-12-11T08:54:41;17.27;;;9.40;;
9418;SDS011;4748;50.802;7.132;2022-12-11T08:57:07;16.73;;;7.73;;
9418;SDS011;4748;50.802;7.132;2022-12-11T08:59:32;19.23;;;7.30;;
9418;SDS011;4748;50.802;7.132;2022-12-11T09:01:57;23.03;;;8.07;;
9418;SDS011;4748;50.802;7.132;2022-12-11T09:04:22;22.57;;;9.03;;
9418;SDS011;4748;50.802;7.132;2022-12-11T09:06:48;20.40;;;9.23;;
9418;SDS011;4748;50.802;7.132;2022-12-11T09:09:14;17.77;;;8.10;;
9418;SDS011;4748;50.802;7.132;2022-12-11T09:11:39;16.77;;;8.33;;
9418;SDS011;4748;50.802;7.132;2022-12-11T09:14:05;15.10;;;6.90;;
9418;SDS011;4748;50.802;7.132;2022-12-11T09:16:31;14.97;;;7.17;;
9418;SDS011;4748;50.802;7.132;2022-12-11T09:18:57;19.07;;;8.87;;
9418;SDS011;4748;50.802;7.132;2022-12-11T09:21:24;19.27;;;6.57;;
9418;SDS011;4748;50.802;7.132;2022-12-11T09:23:52;16.67;;;7.53;;
9418;SDS011;4748;50.802;7.132;2022-12-11T09:26:19;16.57;;;8.60;;
9418;SDS011;4748;50.802;7.132;2022-12-11T09:28:44;19.93;;;7.63;;
9418;SDS011;4748;50.802;7.132;2022-12-11T09:31:11;24.57;;;8.33;;
9418;SDS011;4748;50.802;7.132;2022-12-11T09:33:41;13.90;;;7.13;;
9418;SDS011;4748;50.802;7.132;2022-12-11T09:36:07;19.83;;;6.23;;
9418;SDS011;4748;50.802;7.132;2022-12-11T09:38:33;15.43;;;6.37;;
9418;SDS011;4748;50.802;7.132;2022-12-11T09:41:00;14.73;;;6.93;;
9418;SDS011;4748;50.802;7.132;2022-12-11T09:46:03;13.97;;;7.30;;
9418;SDS011;4748;50.802;7.132;2022-12-11T09:48:34;16.10;;;7.20;;
9418;SDS011;4748;50.802;7.132;2022-12-11T09:51:01;11.33;;;5.23;;
9418;SDS011;4748;50.802;7.132;2022-12-11T09:53:35;17.20;;;7.87;;
9418;SDS011;4748;50.802;7.132;2022-12-11T10:15:46;24.47;;;7.73;;
9418;SDS011;4748;50.802;7.132;2022-12-11T10:18:22;17.17;;;7.10;;
9418;SDS011;4748;50.802;7.132;2022-12-11T10:20:50;18.63;;;7.10;;
9418;SDS011;4748;50.802;7.132;2022-12-11T10:23:20;22.17;;;8.10;;
9418;SDS011;4748;50.802;7.132;2022-12-11T10:26:00;18.63;;;6.77;;
9418;SDS011;4748;50.802;7.132;2022-12-11T10:28:43;14.87;;;6.23;;
9418;SDS011;4748;50.802;7.132;2022-12-11T10:34:03;17.10;;;7.03;;
9418;SDS011;4748;50.802;7.132;2022-12-11T10:36:39;13.23;;;6.30;;
9418;SDS011;4748;50.802;7.132;2022-12-11T10:39:19;18.90;;;6.43;;
9418;SDS011;4748;50.802;7.132;2022-12-11T10:41:46;15.63;;;5.87;;
9418;SDS011;4748;50.802;7.132;2022-12-11T10:44:17;14.30;;;6.50;;
9418;SDS011;4748;50.802;7.132;2022-12-11T10:46:45;9.87;;;5.60;;
9418;SDS011;4748;50.802;7.132;2022-12-11T10:52:11;10.07;;;5.27;;
9418;SDS011;4748;50.802;7.132;2022-12-11T10:54:53;20.23;;;7.30;;
9418;SDS011;4748;50.802;7.132;2022-12-11T10:57:33;16.00;;;6.97;;
9418;SDS011;4748;50.802;7.132;2022-12-11T11:00:02;10.40;;;5.63;;
9418;SDS011;4748;50.802;7.132;2022-12-11T11:02:37;13.27;;;6.00;;
9418;SDS011;4748;50.802;7.132;2022-12-11T11:05:13;10.73;;;5.10;;
9418;SDS011;4748;50.802;7.132;2022-12-11T11:07:41;9.40;;;5.70;;
9418;SDS011;4748;50.802;7.132;2022-12-11T11:12:38;17.47;;;6.30;;
9418;SDS011;4748;50.802;7.132;2022-12-11T11:15:09;17.47;;;6.17;;
9418;SDS011;4748;50.802;7.132;2022-12-11T11:17:41;10.50;;;5.87;;
9418;SDS011;4748;50.802;7.132;2022-12-11T11:20:13;9.80;;;5.13;;
9418;SDS011;4748;50.802;7.132;2022-12-11T11:22:45;10.20;;;5.40;;
9418;SDS011;4748;50.802;7.132;2022-12-11T11:25:21;11.87;;;5.47;;
9418;SDS011;4748;50.802;7.132;2022-12-11T11:27:50;10.73;;;5.27;;
9418;SDS011;4748;50.802;7.132;2022-12-11T11:30:22;11.13;;;4.07;;
9418;SDS011;4748;50.802;7.132;2022-12-11T11:32:51;14.17;;;5.10;;
9418;SDS011;4748;50.802;7.132;2022-12-11T11:35:22;10.13;;;5.90;;
9418;SDS011;4748;50.802;7.132;2022-12-11T11:40:36;11.37;;;6.03;;
9418;SDS011;4748;50.802;7.132;2022-12-11T11:43:06;14.00;;;6.47;;
9418;SDS011;4748;50.802;7.132;2022-12-11T11:51:00;16.80;;;5.70;;
9418;SDS011;4748;50.802;7.132;2022-12-11T11:53:36;14.43;;;4.53;;
9418;SDS011;4748;50.802;7.132;2022-12-11T11:56:14;11.40;;;5.40;;
9418;SDS011;4748;50.802;7.132;2022-12-11T12:01:39;9.00;;;4.43;;
9418;SDS011;4748;50.802;7.132;2022-12-11T12:04:06;15.10;;;6.17;;
9418;SDS011;4748;50.802;7.132;2022-12-11T12:09:22;11.60;;;5.23;;
9418;SDS011;4748;50.802;7.132;2022-12-11T12:12:12;11.00;;;5.00;;
9418;SDS011;4748;50.802;7.132;2022-12-11T12:20:09;9.57;;;4.50;;
9418;SDS011;4748;50.802;7.132;2022-12-11T12:22:57;9.93;;;4.37;;
9418;SDS011;4748;50.802;7.132;2022-12-11T12:25:35;10.67;;;4.03;;
9418;SDS011;4748;50.802;7.132;2022-12-11T12:36:30;15.37;;;5.93;;
9418;SDS011;4748;50.802;7.132;2022-12-11T12:52:11;9.83;;;3.70;;
9418;SDS011;4748;50.802;7.132;2022-12-11T12:54:41;6.57;;;4.10;;
9418;SDS011;4748;50.802;7.132;2022-12-11T12:57:30;10.40;;;5.00;;
9418;SDS011;4748;50.802;7.132;2022-12-11T12:59:57;10.27;;;4.90;;
9418;SDS011;4748;50.802;7.132;2022-12-11T13:02:23;13.70;;;6.33;;
9418;SDS011;4748;50.802;7.132;2022-12-11T13:04:55;12.40;;;4.27;;
9418;SDS011;4748;50.802;7.132;2022-12-11T13:07:25;16.37;;;4.47;;
9418;SDS011;4748;50.802;7.132;2022-12-11T13:12:49;8.47;;;4.83;;
9418;SDS011;4748;50.802;7.132;2022-12-11T13:17:59;12.03;;;5.17;;
9418;SDS011;4748;50.802;7.132;2022-12-11T13:20:27;9.23;;;5.43;;
9418;SDS011;4748;50.802;7.132;2022-12-11T13:28:54;11.33;;;5.83;;
9418;SDS011;4748;50.802;7.132;2022-12-11T13:33:47;17.87;;;4.23;;
9418;SDS011;4748;50.802;7.132;2022-12-11T13:38:45;11.33;;;4.87;;
9418;SDS011;4748;50.802;7.132;2022-12-11T13:41:13;6.83;;;3.73;;
9418;SDS011;4748;50.802;7.132;2022-12-11T13:43:40;10.27;;;3.70;;
9418;SDS011;4748;50.802;7.132;2022-12-11T13:46:07;4.33;;;3.00;;
9418;SDS011;4748;50.802;7.132;2022-12-11T13:48:49;6.10;;;3.40;;
9418;SDS011;4748;50.802;7.132;2022-12-11T13:51:20;8.00;;;4.60;;
9418;SDS011;4748;50.802;7.132;2022-12-11T13:53:48;9.90;;;3.37;;
9418;SDS011;4748;50.802;7.132;2022-12-11T13:56:22;10.63;;;4.67;;
9418;SDS011;4748;50.802;7.132;2022-12-11T13:58:48;14.93;;;5.40;;
9418;SDS011;4748;50.802;7.132;2022-12-11T14:01:19;9.40;;;4.67;;
9418;SDS011;4748;50.802;7.132;2022-12-11T14:04:12;6.63;;;3.07;;
9418;SDS011;4748;50.802;7.132;2022-12-11T14:06:41;4.53;;;3.37;;
9418;SDS011;4748;50.802;7.132;2022-12-11T14:09:07;9.87;;;3.03;;
9418;SDS011;4748;50.802;7.132;2022-12-11T14:11:34;5.97;;;3.30;;
9418;SDS011;4748;50.802;7.132;2022-12-11T14:14:05;8.27;;;3.43;;
9418;SDS011;4748;50.802;7.132;2022-12-11T14:16:40;5.10;;;2.97;;
9418;SDS011;4748;50.802;7.132;2022-12-11T14:19:06;5.70;;;4.30;;
9418;SDS011;4748;50.802;7.132;2022-12-11T14:21:35;6.43;;;2.77;;
9418;SDS011;4748;50.802;7.132;2022-12-11T14:24:01;8.90;;;3.70;;
9418;SDS011;4748;50.802;7.132;2022-12-11T14:26:34;10.97;;;3.60;;
9418;SDS011;4748;50.802;7.132;2022-12-11T14:29:05;17.30;;;5.67;;
9418;SDS011;4748;50.802;7.132;2022-12-11T14:31:33;8.00;;;4.03;;
9418;SDS011;4748;50.802;7.132;2022-12-11T14:34:10;10.30;;;3.37;;
9418;SDS011;4748;50.802;7.132;2022-12-11T14:36:38;11.07;;;4.80;;
9418;SDS011;4748;50.802;7.132;2022-12-11T14:39:10;14.93;;;4.70;;
9418;SDS011;4748;50.802;7.132;2022-12-11T14:41:41;7.13;;;3.87;;
9418;SDS011;4748;50.802;7.132;2022-12-11T14:44:14;10.70;;;4.77;;
9418;SDS011;4748;50.802;7.132;2022-12-11T14:46:46;8.60;;;4.40;;
9418;SDS011;4748;50.802;7.132;2022-12-11T14:49:24;13.77;;;4.47;;
9418;SDS011;4748;50.802;7.132;2022-12-11T14:51:57;13.60;;;5.60;;
9418;SDS011;4748;50.802;7.132;2022-12-11T14:54:28;8.77;;;5.07;;
9418;SDS011;4748;50.802;7.132;2022-12-11T14:56:58;25.23;;;6.23;;
9418;SDS011;4748;50.802;7.132;2022-12-11T14:59:25;14.57;;;5.60;;
9418;SDS011;4748;50.802;7.132;2022-12-11T15:01:57;16.13;;;5.57;;
9418;SDS011;4748;50.802;7.132;2022-12-11T15:04:28;15.33;;;6.53;;
9418;SDS011;4748;50.802;7.132;2022-12-11T15:06:55;12.63;;;4.63;;
9418;SDS011;4748;50.802;7.132;2022-12-11T15:09:26;13.63;;;4.73;;
9418;SDS011;4748;50.802;7.132;2022-12-11T15:12:18;15.27;;;5.63;;
9418;SDS011;4748;50.802;7.132;2022-12-11T15:14:51;7.40;;;4.27;;
9418;SDS011;4748;50.802;7.132;2022-12-11T15:17:20;5.30;;;4.60;;
9418;SDS011;4748;50.802;7.132;2022-12-11T15:19:47;12.13;;;5.30;;
9418;SDS011;4748;50.802;7.132;2022-12-11T15:22:16;15.33;;;6.27;;
9418;SDS011;4748;50.802;7.132;2022-12-11T15:24:43;10.90;;;4.93;;
9418;SDS011;4748;50.802;7.132;2022-12-11T15:30:01;9.50;;;4.10;;
9418;SDS011;4748;50.802;7.132;2022-12-11T15:35:33;6.77;;;4.37;;
9418;SDS011;4748;50.802;7.132;2022-12-11T15:37:59;10.07;;;4.13;;
9418;SDS011;4748;50.802;7.132;2022-12-11T15:40:24;8.50;;;4.07;;
9418;SDS011;4748;50.802;7.132;2022-12-11T15:42:52;19.93;;;5.60;;
9418;SDS011;4748;50.802;7.132;2022-12-11T15:45:23;15.37;;;5.77;;
9418;SDS011;4748;50.802;7.132;2022-12-11T15:48:07;16.23;;;8.45;;
9418;SDS011;4748;50.802;7.132;2022-12-11T15:50:35;12.63;;;5.20;;
9418;SDS011;4748;50.802;7.132;2022-12-11T15:53:01;9.87;;;4.03;;
9418;SDS011;4748;50.802;7.132;2022-12-11T15:55:26;7.67;;;3.80;;
9418;SDS011;4748;50.802;7.132;2022-12-11T15:57:58;14.67;;;4.90;;
9418;SDS011;4748;50.802;7.132;2022-12-11T16:00:27;11.10;;;5.53;;
9418;SDS011;4748;50.802;7.132;2022-12-11T16:02:53;8.00;;;4.07;;
9418;SDS011;4748;50.802;7.132;2022-12-11T16:05:19;9.80;;;4.37;;
9418;SDS011;4748;50.802;7.132;2022-12-11T16:07:46;5.97;;;3.33;;
9418;SDS011;4748;50.802;7.132;2022-12-11T16:10:12;9.13;;;4.27;;
9418;SDS011;4748;50.802;7.132;2022-12-11T16:12:41;10.17;;;6.00;;
9418;SDS011;4748;50.802;7.132;2022-12-11T16:15:07;12.13;;;6.27;;
9418;SDS011;4748;50.802;7.132;2022-12-11T16:17:33;9.47;;;5.40;;
9418;SDS011;4748;50.802;7.132;2022-12-11T16:19:59;13.33;;;5.73;;
9418;SDS011;4748;50.802;7.132;2022-12-11T16:22:24;13.20;;;6.13;;
9418;SDS011;4748;50.802;7.132;2022-12-11T16:24:53;14.27;;;8.13;;
9418;SDS011;4748;50.802;7.132;2022-12-11T16:27:19;12.83;;;5.67;;
9418;SDS011;4748;50.802;7.132;2022-12-11T16:29:45;12.63;;;5.17;;
9418;SDS011;4748;50.802;7.132;2022-12-11T16:32:10;19.77;;;7.40;;
9418;SDS011;4748;50.802;7.132;2022-12-11T16:34:36;10.13;;;5.47;;
9418;SDS011;4748;50.802;7.132;2022-12-11T16:37:03;12.43;;;5.90;;
9418;SDS011;4748;50.802;7.132;2022-12-11T16:39:32;8.37;;;5.97;;
9418;SDS011;4748;50.802;7.132;2022-12-11T16:41:58;15.53;;;5.80;;
9418;SDS011;4748;50.802;7.132;2022-12-11T16:44:24;13.30;;;5.87;;
9418;SDS011;4748;50.802;7.132;2022-12-11T16:46:51;13.33;;;6.53;;
9418;SDS011;4748;50.802;7.132;2022-12-11T16:49:18;14.30;;;6.23;;
9418;SDS011;4748;50.802;7.132;2022-12-11T16:51:44;10.50;;;5.97;;
9418;SDS011;4748;50.802;7.132;2022-12-11T16:54:10;18.50;;;5.20;;
9418;SDS011;4748;50.802;7.132;2022-12-11T16:56:36;14.70;;;5.43;;
9418;SDS011;4748;50.802;7.132;2022-12-11T16:59:02;6.83;;;4.70;;
9418;SDS011;4748;50.802;7.132;2022-12-11T17:01:28;9.03;;;5.23;;
9418;SDS011;4748;50.802;7.132;2022-12-11T17:03:53;5.83;;;4.40;;
9418;SDS011;4748;50.802;7.132;2022-12-11T17:06:19;11.27;;;5.73;;
9418;SDS011;4748;50.802;7.132;2022-12-11T17:08:44;11.00;;;5.17;;